createdAt,value
2019-06-27T00:00:07.126Z,96019.00
2019-06-27T00:02:37.037Z,96021.00
2019-06-27T00:05:07.565Z,96012.00
2019-06-27T00:07:37.485Z,96019.00
2019-06-27T00:10:08.568Z,96016.00
2019-06-27T00:12:38.576Z,96014.00
2019-06-27T00:15:08.798Z,96005.00
2019-06-27T00:17:38.800Z,96009.00
2019-06-27T00:20:10.003Z,96009.00
2019-06-27T00:22:41.264Z,96013.00
2019-06-27T00:25:11.451Z,96004.00
2019-06-27T00:27:41.362Z,96003.00
2019-06-27T00:30:12.580Z,96004.00
2019-06-27T00:32:42.615Z,96000.00
2019-06-27T00:35:13.192Z,95996.00
2019-06-27T00:37:44.305Z,95997.00
2019-06-27T00:40:15.104Z,95999.00
2019-06-27T00:42:45.168Z,95999.00
2019-06-27T00:45:16.010Z,95992.00
2019-06-27T00:47:46.075Z,95994.00
2019-06-27T00:50:16.794Z,95997.00
2019-06-27T00:52:46.780Z,95987.00
2019-06-27T00:55:16.830Z,95988.00
2019-06-27T00:57:46.953Z,95988.00
2019-06-27T01:00:17.473Z,95982.00
2019-06-27T01:02:48.465Z,95988.00
2019-06-27T01:05:18.503Z,95986.00
2019-06-27T01:07:48.562Z,95985.00
2019-06-27T01:10:20.038Z,95983.00
2019-06-27T01:12:50.021Z,95982.00
2019-06-27T01:15:20.273Z,95992.00
2019-06-27T01:17:50.282Z,95985.00
2019-06-27T01:20:20.431Z,95992.00
2019-06-27T01:22:50.515Z,95986.00
2019-06-27T01:25:20.750Z,95989.00
2019-06-27T01:27:51.505Z,95979.00
2019-06-27T01:30:22.162Z,95980.00
2019-06-27T01:32:52.320Z,95984.00
2019-06-27T01:35:22.528Z,95989.00
2019-06-27T01:37:52.498Z,95991.00
2019-06-27T01:40:22.697Z,95995.00
2019-06-27T01:42:52.839Z,95991.00
2019-06-27T01:45:28.642Z,95988.00
2019-06-27T01:47:58.656Z,95988.00
2019-06-27T01:50:28.723Z,95994.00
2019-06-27T01:52:58.739Z,95988.00
2019-06-27T01:55:28.744Z,95996.00
2019-06-27T01:57:58.726Z,95985.00
2019-06-27T02:00:29.153Z,95989.00
2019-06-27T02:02:59.303Z,95993.00
2019-06-27T02:05:29.352Z,95994.00
2019-06-27T02:07:59.492Z,95999.00
2019-06-27T02:10:30.166Z,95989.00
2019-06-27T02:13:00.224Z,95991.00
2019-06-27T02:15:30.359Z,95988.00
2019-06-27T02:18:00.421Z,95994.00
2019-06-27T02:20:30.602Z,95986.00
2019-06-27T02:23:00.648Z,95990.00
2019-06-27T02:25:31.079Z,95993.00
2019-06-27T02:28:04.268Z,95994.00
2019-06-27T02:30:44.400Z,95988.00
2019-06-27T02:33:14.676Z,95987.00
2019-06-27T02:35:45.514Z,95996.00
2019-06-27T02:38:16.316Z,95999.00
2019-06-27T02:40:46.641Z,95994.00
2019-06-27T02:43:16.639Z,96005.00
2019-06-27T02:45:46.710Z,95998.00
2019-06-27T02:48:16.730Z,96008.00
2019-06-27T02:50:46.727Z,96013.00
2019-06-27T02:53:17.583Z,96023.00
2019-06-27T02:55:47.583Z,96027.00
2019-06-27T02:58:30.169Z,96026.00
2019-06-27T03:00:49.372Z,96031.00
2019-06-27T03:03:19.402Z,96026.00
2019-06-27T03:05:49.479Z,96036.00
2019-06-27T03:08:19.638Z,96032.00
2019-06-27T03:10:51.460Z,96025.00
2019-06-27T03:13:21.546Z,96022.00
2019-06-27T03:15:51.568Z,96012.00
2019-06-27T03:18:21.683Z,96022.00
2019-06-27T03:20:51.662Z,96014.00
2019-06-27T03:23:21.674Z,96014.00
2019-06-27T03:25:51.671Z,96009.00
2019-06-27T03:28:21.594Z,96013.00
2019-06-27T03:30:51.704Z,96011.00
2019-06-27T03:33:21.698Z,96014.00
2019-06-27T03:35:52.868Z,96012.00
2019-06-27T03:38:22.885Z,96012.00
2019-06-27T03:40:52.936Z,96012.00
2019-06-27T03:43:22.986Z,96008.00
2019-06-27T03:45:53.053Z,96006.00
2019-06-27T03:48:23.143Z,96016.00
2019-06-27T03:50:56.033Z,96006.00
2019-06-27T03:53:24.721Z,96011.00
2019-06-27T03:55:54.705Z,96012.00
2019-06-27T03:58:24.849Z,96017.00
2019-06-27T04:00:56.432Z,96014.00
2019-06-27T04:03:26.849Z,96013.00
2019-06-27T04:05:56.834Z,96007.00
2019-06-27T04:08:26.951Z,96015.00
2019-06-27T04:10:57.124Z,96005.00
2019-06-27T04:13:27.202Z,96004.00
2019-06-27T04:15:57.231Z,96000.00
2019-06-27T04:18:27.122Z,96000.00
2019-06-27T04:20:57.205Z,96000.00
2019-06-27T04:23:27.206Z,96003.00
2019-06-27T04:25:58.240Z,95999.00
2019-06-27T04:28:28.239Z,96007.00
2019-06-27T04:30:58.330Z,95996.00
2019-06-27T04:33:28.338Z,95998.00
2019-06-27T04:35:58.367Z,95991.00
2019-06-27T04:38:28.344Z,96008.00
2019-06-27T04:40:58.256Z,96001.00
2019-06-27T04:43:28.672Z,95998.00
2019-06-27T04:45:58.614Z,96008.00
2019-06-27T04:48:28.518Z,96002.00
2019-06-27T04:50:59.378Z,96003.00
2019-06-27T04:53:29.303Z,95999.00
2019-06-27T04:55:59.297Z,96000.00
2019-06-27T04:58:29.304Z,96012.00
2019-06-27T05:00:59.383Z,96005.00
2019-06-27T05:03:29.391Z,96012.00
2019-06-27T05:05:59.296Z,96007.00
2019-06-27T05:08:29.437Z,96009.00
2019-06-27T05:10:59.352Z,96004.00
2019-06-27T05:13:29.340Z,96008.00
2019-06-27T05:16:00.205Z,96005.00
2019-06-27T05:18:30.117Z,96000.00
2019-06-27T05:21:00.027Z,95994.00
2019-06-27T05:23:29.950Z,95993.00
2019-06-27T05:25:59.872Z,95994.00
2019-06-27T05:28:29.844Z,95992.00
2019-06-27T05:30:59.876Z,95989.00
2019-06-27T05:33:29.806Z,96000.00
2019-06-27T05:36:02.411Z,95993.00
2019-06-27T05:38:31.520Z,95990.00
2019-06-27T05:41:01.480Z,95986.00
2019-06-27T05:43:31.343Z,95992.00
2019-06-27T05:46:01.258Z,95993.00
2019-06-27T05:48:31.232Z,95994.00
2019-06-27T05:51:01.120Z,95997.00
2019-06-27T05:53:31.091Z,95998.00
2019-06-27T05:56:01.101Z,95989.00
2019-06-27T05:58:31.010Z,95991.00
2019-06-27T06:01:01.073Z,95989.00
2019-06-27T06:03:31.173Z,95988.00
2019-06-27T06:06:01.579Z,95991.00
2019-06-27T06:08:31.483Z,95982.00
2019-06-27T06:11:01.467Z,95998.00
2019-06-27T06:13:31.362Z,95997.00
2019-06-27T06:16:01.597Z,95989.00
2019-06-27T06:18:31.648Z,95998.00
2019-06-27T06:21:01.637Z,96001.00
2019-06-27T06:23:31.528Z,96003.00
2019-06-27T06:26:01.538Z,95996.00
2019-06-27T06:28:31.652Z,96003.00
2019-06-27T06:31:01.796Z,96011.00
2019-06-27T06:33:31.744Z,96001.00
2019-06-27T06:36:01.708Z,96005.00
2019-06-27T06:38:31.651Z,96000.00
2019-06-27T06:41:01.792Z,95998.00
2019-06-27T06:43:31.686Z,95997.00
2019-06-27T06:46:01.643Z,95993.00
2019-06-27T06:48:31.571Z,95997.00
2019-06-27T06:51:01.459Z,95995.00
2019-06-27T06:53:31.426Z,95984.00
2019-06-27T06:56:02.501Z,95995.00
2019-06-27T06:58:32.417Z,95984.00
2019-06-27T07:01:02.773Z,95984.00
2019-06-27T07:03:32.803Z,95975.00
2019-06-27T07:06:02.768Z,95974.00
2019-06-27T07:08:32.755Z,95983.00
2019-06-27T07:11:02.642Z,95976.00
2019-06-27T07:13:32.534Z,95985.00
2019-06-27T07:16:02.516Z,95986.00
2019-06-27T07:18:32.412Z,95988.00
2019-06-27T07:21:02.391Z,95995.00
2019-06-27T07:23:32.272Z,95997.00
2019-06-27T07:26:02.286Z,95990.00
2019-06-27T07:28:32.274Z,95996.00
2019-06-27T07:31:16.766Z,95998.00
2019-06-27T07:33:33.994Z,95995.00
2019-06-27T07:36:04.041Z,95997.00
2019-06-27T07:38:34.047Z,95998.00
2019-06-27T07:41:04.225Z,95994.00
2019-06-27T07:43:34.132Z,96000.00
2019-06-27T07:46:05.128Z,96005.00
2019-06-27T07:48:35.066Z,96007.00
2019-06-27T07:51:05.113Z,96010.00
2019-06-27T07:53:35.050Z,96003.00
2019-06-27T07:56:05.015Z,96009.00
2019-06-27T07:58:35.009Z,96019.00
2019-06-27T08:01:05.167Z,96013.00
2019-06-27T08:03:36.300Z,96025.00
2019-06-27T08:06:06.450Z,96012.00
2019-06-27T08:08:36.445Z,96007.00
2019-06-27T08:11:06.410Z,96011.00
2019-06-27T08:13:36.361Z,96011.00
2019-06-27T08:16:06.442Z,96010.00
2019-06-27T08:18:36.419Z,96014.00
2019-06-27T08:21:07.474Z,96015.00
2019-06-27T08:23:41.929Z,96013.00
2019-06-27T08:26:09.191Z,96010.00
2019-06-27T08:28:39.203Z,96013.00
2019-06-27T08:31:09.469Z,96005.00
2019-06-27T08:33:39.382Z,96010.00
2019-06-27T08:36:09.507Z,96020.00
2019-06-27T08:38:39.526Z,96021.00
2019-06-27T08:41:09.691Z,96021.00
2019-06-27T08:43:39.609Z,96020.00
2019-06-27T08:46:09.648Z,96018.00
2019-06-27T08:48:39.621Z,96022.00
2019-06-27T08:51:09.690Z,96027.00
2019-06-27T08:53:40.543Z,96026.00
2019-06-27T08:56:10.435Z,96020.00
2019-06-27T08:58:40.482Z,96019.00
2019-06-27T09:01:10.405Z,96019.00
2019-06-27T09:03:40.559Z,96025.00
2019-06-27T09:06:10.592Z,96017.00
2019-06-27T09:08:40.570Z,96014.00
2019-06-27T09:11:10.657Z,96006.00
2019-06-27T09:13:40.606Z,96009.00
2019-06-27T09:16:10.588Z,96015.00
2019-06-27T09:18:41.041Z,96016.00
2019-06-27T09:21:11.221Z,96016.00
2019-06-27T09:23:41.353Z,96015.00
2019-06-27T09:26:11.292Z,96013.00
2019-06-27T09:28:41.284Z,96013.00
2019-06-27T09:31:11.563Z,96018.00
2019-06-27T09:33:41.641Z,96019.00
2019-06-27T09:36:11.648Z,96024.00
2019-06-27T09:38:41.752Z,96025.00
2019-06-27T09:41:11.791Z,96028.00
2019-06-27T09:43:41.866Z,96033.00
2019-06-27T09:46:11.911Z,96028.00
2019-06-27T09:48:41.838Z,96030.00
2019-06-27T09:51:11.929Z,96027.00
2019-06-27T09:53:42.015Z,96028.00
2019-06-27T09:56:12.113Z,96029.00
2019-06-27T09:58:42.144Z,96030.00
2019-06-27T10:01:13.999Z,96030.00
2019-06-27T10:03:43.968Z,96031.00
2019-06-27T10:06:13.990Z,96033.00
2019-06-27T10:08:44.484Z,96028.00
2019-06-27T10:11:14.649Z,96033.00
2019-06-27T10:13:44.681Z,96026.00
2019-06-27T10:16:14.675Z,96028.00
2019-06-27T10:18:44.732Z,96030.00
2019-06-27T10:21:17.612Z,96028.00
2019-06-27T10:23:47.537Z,96026.00
2019-06-27T10:26:17.570Z,96027.00
2019-06-27T10:28:47.576Z,96033.00
2019-06-27T10:31:17.641Z,96028.00
2019-06-27T10:33:48.778Z,96029.00
2019-06-27T10:36:18.808Z,96029.00
2019-06-27T10:38:48.757Z,96026.00
2019-06-27T10:41:18.669Z,96026.00
2019-06-27T10:43:48.573Z,96027.00
2019-06-27T10:46:18.502Z,96027.00
2019-06-27T10:48:48.422Z,96028.00
2019-06-27T10:51:21.625Z,96023.00
2019-06-27T10:53:51.556Z,96023.00
2019-06-27T10:56:21.531Z,96019.00
2019-06-27T10:58:51.443Z,96006.00
2019-06-27T11:01:21.413Z,96017.00
2019-06-27T11:03:51.385Z,96009.00
2019-06-27T11:06:21.396Z,96015.00
2019-06-27T11:08:51.302Z,96017.00
2019-06-27T11:11:21.353Z,96016.00
2019-06-27T11:13:58.753Z,96011.00
2019-06-27T11:16:24.046Z,96006.00
2019-06-27T11:18:53.926Z,96002.00
2019-06-27T11:21:23.825Z,96002.00
2019-06-27T11:23:53.839Z,95999.00
2019-06-27T11:26:23.744Z,95997.00
2019-06-27T11:28:53.829Z,95997.00
2019-06-27T11:31:23.794Z,95990.00
2019-06-27T11:33:53.776Z,95992.00
2019-06-27T11:36:23.740Z,95990.00
2019-06-27T11:38:54.100Z,95985.00
2019-06-27T11:41:24.382Z,95991.00
2019-06-27T11:43:54.376Z,95985.00
2019-06-27T11:46:24.287Z,95988.00
2019-06-27T11:48:54.269Z,95982.00
2019-06-27T11:51:24.163Z,95984.00
2019-06-27T11:53:54.163Z,95987.00
2019-06-27T11:56:24.186Z,95988.00
2019-06-27T11:58:55.035Z,95984.00
2019-06-27T12:01:26.065Z,95981.00
2019-06-27T12:03:56.065Z,95984.00
2019-06-27T12:06:26.142Z,95982.00
2019-06-27T12:08:56.100Z,95980.00
2019-06-27T12:11:26.255Z,95977.00
2019-06-27T12:13:56.173Z,95979.00
2019-06-27T12:16:26.162Z,95977.00
2019-06-27T12:18:56.205Z,95972.00
2019-06-27T12:21:26.923Z,95976.00
2019-06-27T12:23:56.966Z,95973.00
2019-06-27T12:26:27.020Z,95978.00
2019-06-27T12:28:57.053Z,95983.00
2019-06-27T12:31:27.159Z,95971.00
2019-06-27T12:34:06.952Z,95971.00
2019-06-27T12:36:28.793Z,95961.00
2019-06-27T12:38:58.856Z,95961.00
2019-06-27T12:41:28.836Z,95960.00
2019-06-27T12:43:58.910Z,95961.00
2019-06-27T12:46:29.059Z,95962.00
2019-06-27T12:48:59.051Z,95963.00
2019-06-27T12:51:29.046Z,95954.00
2019-06-27T12:53:59.009Z,95958.00
2019-06-27T12:56:28.974Z,95939.00
2019-06-27T12:58:58.997Z,95946.00
2019-06-27T13:01:29.124Z,95942.00
2019-06-27T13:03:59.331Z,95934.00
2019-06-27T13:06:29.440Z,95933.00
2019-06-27T13:08:59.500Z,95940.00
2019-06-27T13:11:29.442Z,95937.00
2019-06-27T13:13:59.875Z,95933.00
2019-06-27T13:16:31.166Z,95926.00
2019-06-27T13:19:01.339Z,95920.00
2019-06-27T13:21:31.868Z,95928.00
2019-06-27T13:24:01.858Z,95927.00
2019-06-27T13:26:31.898Z,95930.00
2019-06-27T13:29:01.821Z,95916.00
2019-06-27T13:31:32.539Z,95920.00
2019-06-27T13:34:02.648Z,95920.00
2019-06-27T13:36:33.485Z,95911.00
2019-06-27T13:39:06.354Z,95916.00
2019-06-27T13:41:36.789Z,95910.00
2019-06-27T13:44:06.964Z,95907.00
2019-06-27T13:46:37.051Z,95909.00
2019-06-27T13:49:07.014Z,95903.00
2019-06-27T13:51:36.997Z,95901.00
2019-06-27T13:54:06.999Z,95908.00
2019-06-27T13:56:36.955Z,95896.00
2019-06-27T13:59:06.908Z,95890.00
2019-06-27T14:01:36.921Z,95887.00
2019-06-27T14:04:06.795Z,95904.00
2019-06-27T14:06:41.004Z,95894.00
2019-06-27T14:09:21.960Z,95885.00
2019-06-27T14:11:40.256Z,95888.00
2019-06-27T14:14:11.524Z,95889.00
2019-06-27T14:16:42.104Z,95894.00
2019-06-27T14:19:12.239Z,95882.00
2019-06-27T14:21:43.367Z,95881.00
2019-06-27T14:24:13.269Z,95878.00
2019-06-27T14:26:43.777Z,95881.00
2019-06-27T14:29:13.685Z,95878.00
2019-06-27T14:31:43.597Z,95870.00
2019-06-27T14:34:13.709Z,95877.00
2019-06-27T14:36:43.705Z,95870.00
2019-06-27T14:39:14.282Z,95877.00
2019-06-27T14:41:44.213Z,95874.00
2019-06-27T14:44:14.136Z,95876.00
2019-06-27T14:46:44.827Z,95870.00
2019-06-27T14:49:14.961Z,95864.00
2019-06-27T14:51:44.986Z,95865.00
2019-06-27T14:54:14.963Z,95862.00
2019-06-27T14:56:44.909Z,95859.00
2019-06-27T14:59:14.894Z,95856.00
2019-06-27T15:01:44.833Z,95856.00
2019-06-27T15:04:14.761Z,95853.00
2019-06-27T15:06:44.775Z,95854.00
2019-06-27T15:09:14.673Z,95851.00
2019-06-27T15:11:45.640Z,95849.00
2019-06-27T15:14:15.637Z,95848.00
2019-06-27T15:16:46.379Z,95843.00
2019-06-27T15:19:16.280Z,95847.00
2019-06-27T15:21:46.355Z,95846.00
2019-06-27T15:24:16.565Z,95848.00
2019-06-27T15:26:46.477Z,95850.00
2019-06-27T15:29:16.407Z,95845.00
2019-06-27T15:31:46.337Z,95848.00
2019-06-27T15:34:16.395Z,95845.00
2019-06-27T15:36:46.919Z,95844.00
2019-06-27T15:39:16.901Z,95846.00
2019-06-27T15:41:46.864Z,95850.00
2019-06-27T15:44:20.488Z,95853.00
2019-06-27T15:46:48.526Z,95839.00
2019-06-27T15:49:18.437Z,95843.00
2019-06-27T15:51:48.506Z,95840.00
2019-06-27T15:54:18.422Z,95840.00
2019-06-27T15:56:48.477Z,95840.00
2019-06-27T15:59:18.454Z,95838.00
2019-06-27T16:01:48.465Z,95829.00
2019-06-27T16:04:28.999Z,95834.00
2019-06-27T16:06:51.052Z,95830.00
2019-06-27T16:09:21.034Z,95832.00
2019-06-27T16:11:52.527Z,95826.00
2019-06-27T16:14:22.452Z,95831.00
2019-06-27T16:16:53.027Z,95811.00
2019-06-27T16:19:23.874Z,95818.00
2019-06-27T16:21:53.984Z,95819.00
2019-06-27T16:24:24.054Z,95815.00
2019-06-27T16:26:54.888Z,95812.00
2019-06-27T16:29:24.965Z,95817.00
2019-06-27T16:31:55.107Z,95815.00
2019-06-27T16:34:28.676Z,95815.00
2019-06-27T16:36:57.079Z,95818.00
2019-06-27T16:39:28.352Z,95810.00
2019-06-27T16:41:58.487Z,95821.00
2019-06-27T16:44:29.074Z,95806.00
2019-06-27T16:46:59.113Z,95808.00
2019-06-27T16:49:29.058Z,95813.00
2019-06-27T16:51:59.215Z,95820.00
2019-06-27T16:54:29.221Z,95821.00
2019-06-27T16:56:59.275Z,95822.00
2019-06-27T16:59:29.287Z,95825.00
2019-06-27T17:01:59.442Z,95830.00
2019-06-27T17:04:29.413Z,95835.00
2019-06-27T17:06:59.345Z,95828.00
2019-06-27T17:09:29.464Z,95832.00
2019-06-27T17:11:59.538Z,95835.00
2019-06-27T17:14:29.476Z,95834.00
2019-06-27T17:16:59.539Z,95836.00
2019-06-27T17:19:29.867Z,95836.00
2019-06-27T17:21:59.781Z,95831.00
2019-06-27T17:24:29.871Z,95835.00
2019-06-27T17:26:59.865Z,95851.00
2019-06-27T17:29:29.783Z,95841.00
2019-06-27T17:31:59.932Z,95844.00
2019-06-27T17:34:32.422Z,95851.00
2019-06-27T17:37:02.327Z,95842.00
2019-06-27T17:39:32.212Z,95848.00
2019-06-27T17:42:02.120Z,95852.00
2019-06-27T17:44:32.107Z,95851.00
2019-06-27T17:47:02.013Z,95852.00
2019-06-27T17:49:31.896Z,95851.00
2019-06-27T17:52:02.053Z,95852.00
2019-06-27T17:54:32.125Z,95854.00
2019-06-27T17:57:02.133Z,95849.00
2019-06-27T17:59:32.758Z,95852.00
2019-06-27T18:02:02.764Z,95855.00
2019-06-27T18:04:32.675Z,95848.00
2019-06-27T18:07:13.636Z,95858.00
2019-06-27T18:09:34.204Z,95855.00
2019-06-27T18:12:05.323Z,95853.00
2019-06-27T18:14:35.445Z,95862.00
2019-06-27T18:17:05.441Z,95865.00
2019-06-27T18:19:35.416Z,95865.00
2019-06-27T18:22:05.420Z,95850.00
2019-06-27T18:24:36.771Z,95857.00
2019-06-27T18:27:06.777Z,95863.00
2019-06-27T18:29:36.845Z,95867.00
2019-06-27T18:32:06.750Z,95863.00
2019-06-27T18:34:36.650Z,95863.00
2019-06-27T18:37:06.651Z,95868.00
2019-06-27T18:39:36.539Z,95874.00
2019-06-27T18:42:06.497Z,95869.00
2019-06-27T18:44:36.559Z,95868.00
2019-06-27T18:47:06.699Z,95863.00
2019-06-27T18:49:37.454Z,95874.00
2019-06-27T18:52:07.580Z,95872.00
2019-06-27T18:54:37.547Z,95867.00
2019-06-27T18:57:07.548Z,95873.00
2019-06-27T18:59:37.474Z,95883.00
2019-06-27T19:02:07.827Z,95883.00
2019-06-27T19:04:37.808Z,95885.00
2019-06-27T19:07:07.802Z,95889.00
2019-06-27T19:09:37.671Z,95894.00
2019-06-27T19:12:07.576Z,95892.00
2019-06-27T19:14:37.629Z,95893.00
2019-06-27T19:17:07.652Z,95897.00
2019-06-27T19:19:39.359Z,95898.00
2019-06-27T19:22:28.211Z,95908.00
2019-06-27T19:25:07.350Z,95915.00
2019-06-27T19:27:37.257Z,95913.00
2019-06-27T19:30:07.988Z,95920.00
2019-06-27T19:32:37.889Z,95926.00
2019-06-27T19:35:08.222Z,95925.00
2019-06-27T19:37:38.199Z,95930.00
2019-06-27T19:40:08.646Z,95927.00
2019-06-27T19:42:38.542Z,95935.00
2019-06-27T19:45:08.962Z,95941.00
2019-06-27T19:47:39.009Z,95938.00
2019-06-27T19:50:10.450Z,95945.00
2019-06-27T19:52:40.357Z,95948.00
2019-06-27T19:55:10.883Z,95947.00
2019-06-27T19:57:40.945Z,95958.00
2019-06-27T20:00:12.232Z,95950.00
2019-06-27T20:02:42.229Z,95958.00
2019-06-27T20:05:12.437Z,95959.00
2019-06-27T20:07:43.146Z,95954.00
2019-06-27T20:10:13.566Z,95955.00
2019-06-27T20:12:43.616Z,95959.00
2019-06-27T20:15:13.772Z,95966.00
2019-06-27T20:17:43.754Z,95967.00
2019-06-27T20:20:14.515Z,95973.00
2019-06-27T20:22:44.519Z,95970.00
2019-06-27T20:25:14.627Z,95974.00
2019-06-27T20:27:44.721Z,95980.00
2019-06-27T20:30:15.383Z,95975.00
2019-06-27T20:32:45.450Z,95979.00
2019-06-27T20:35:16.821Z,95965.00
2019-06-27T20:37:47.062Z,95981.00
2019-06-27T20:40:18.702Z,95979.00
2019-06-27T20:42:48.758Z,95984.00
2019-06-27T20:45:18.984Z,95989.00
2019-06-27T20:47:50.592Z,95991.00
2019-06-27T20:50:21.541Z,95992.00
2019-06-27T20:52:51.661Z,95992.00
2019-06-27T20:55:21.538Z,95992.00
2019-06-27T20:57:51.440Z,95996.00
2019-06-27T21:00:22.061Z,96002.00
2019-06-27T21:02:51.973Z,96000.00
2019-06-27T21:05:21.926Z,96002.00
2019-06-27T21:07:51.828Z,96003.00
2019-06-27T21:10:21.943Z,96001.00
2019-06-27T21:12:51.914Z,96011.00
2019-06-27T21:15:23.833Z,96009.00
2019-06-27T21:17:53.944Z,96015.00
2019-06-27T21:20:24.111Z,96013.00
2019-06-27T21:22:55.013Z,96012.00
2019-06-27T21:25:24.972Z,96012.00
2019-06-27T21:27:55.031Z,96014.00
2019-06-27T21:30:25.374Z,96009.00
2019-06-27T21:32:55.419Z,96012.00
2019-06-27T21:35:25.468Z,96014.00
2019-06-27T21:37:56.225Z,96018.00
2019-06-27T21:40:28.107Z,96019.00
2019-06-27T21:42:58.069Z,96018.00
2019-06-27T21:45:28.028Z,96024.00
2019-06-27T21:47:57.978Z,96020.00
2019-06-27T21:50:27.865Z,96028.00
2019-06-27T21:52:57.834Z,96023.00
2019-06-27T21:55:27.862Z,96028.00
2019-06-27T21:57:59.957Z,96034.00
2019-06-27T22:00:31.292Z,96026.00
2019-06-27T22:03:01.575Z,96028.00
2019-06-27T22:05:31.559Z,96026.00
2019-06-27T22:08:01.620Z,96024.00
2019-06-27T22:10:31.717Z,96026.00
2019-06-27T22:13:01.674Z,96021.00
2019-06-27T22:15:31.701Z,96019.00
2019-06-27T22:18:01.898Z,96012.00
2019-06-27T22:20:31.945Z,96015.00
2019-06-27T22:23:02.007Z,96019.00
2019-06-27T22:25:40.479Z,96014.00
2019-06-27T22:28:03.756Z,96023.00
2019-06-27T22:30:33.799Z,96027.00
2019-06-27T22:33:03.961Z,96018.00
2019-06-27T22:35:33.928Z,96023.00
2019-06-27T22:38:24.663Z,96013.00
2019-06-27T22:41:12.423Z,96026.00
2019-06-27T22:43:59.900Z,96018.00
2019-06-27T22:46:47.605Z,96023.00
2019-06-27T22:49:17.536Z,96017.00
2019-06-27T22:52:08.757Z,96013.00
2019-06-27T22:54:40.695Z,96006.00
2019-06-27T22:57:10.937Z,96004.00
2019-06-27T22:59:40.845Z,96000.00
2019-06-27T23:02:11.652Z,96004.00
2019-06-27T23:04:41.670Z,96011.00
2019-06-27T23:07:11.665Z,96004.00
2019-06-27T23:09:55.965Z,96006.00
2019-06-27T23:12:14.393Z,96010.00
2019-06-27T23:14:44.388Z,96007.00
2019-06-27T23:17:14.411Z,96001.00
2019-06-27T23:19:44.439Z,96000.00
2019-06-27T23:22:14.426Z,95993.00
2019-06-27T23:24:44.497Z,96001.00
2019-06-27T23:27:16.875Z,96006.00
2019-06-27T23:29:46.857Z,96000.00
2019-06-27T23:32:16.888Z,95994.00
2019-06-27T23:34:48.245Z,96003.00
2019-06-27T23:37:18.176Z,96000.00
2019-06-27T23:39:48.163Z,95994.00
2019-06-27T23:42:18.056Z,96002.00
2019-06-27T23:44:47.966Z,95995.00
2019-06-27T23:47:17.947Z,95992.00
2019-06-27T23:49:47.865Z,95992.00
2019-06-27T23:52:18.653Z,95992.00
2019-06-27T23:54:48.581Z,95991.00
2019-06-27T23:57:18.491Z,95987.00
2019-06-27T23:59:49.269Z,95990.00
